createdAt,value
2022-11-16T00:01:30.191Z,8.60
2022-11-16T00:03:59.823Z,8.32
2022-11-16T00:06:28.002Z,8.43
2022-11-16T00:09:20.022Z,8.50
2022-11-16T00:11:48.882Z,8.45
2022-11-16T00:14:15.649Z,8.05
2022-11-16T00:16:42.897Z,8.52
2022-11-16T00:19:11.357Z,8.35
2022-11-16T00:21:38.193Z,8.25
2022-11-16T00:24:05.521Z,8.55
2022-11-16T00:26:32.383Z,8.07
2022-11-16T00:28:59.346Z,9.23
2022-11-16T00:31:26.306Z,8.35
2022-11-16T00:33:53.122Z,9.25
2022-11-16T00:36:20.038Z,9.40
2022-11-16T00:38:47.580Z,9.15
2022-11-16T00:41:14.602Z,7.97
2022-11-16T00:43:41.456Z,8.48
2022-11-16T00:46:09.306Z,8.93
2022-11-16T00:48:37.231Z,8.60
2022-11-16T00:51:04.468Z,7.82
2022-11-16T00:53:31.359Z,8.23
2022-11-16T00:55:58.142Z,8.45
2022-11-16T00:58:25.047Z,8.60
2022-11-16T01:00:52.148Z,7.80
2022-11-16T01:03:18.914Z,8.55
2022-11-16T01:05:45.842Z,8.32
2022-11-16T01:08:12.748Z,8.07
2022-11-16T01:10:41.274Z,8.85
2022-11-16T01:13:08.082Z,8.52
2022-11-16T01:15:34.901Z,7.32
2022-11-16T01:18:01.740Z,7.72
2022-11-16T01:20:30.090Z,7.57
2022-11-16T01:22:57.271Z,8.13
2022-11-16T01:25:24.045Z,7.57
2022-11-16T01:27:50.942Z,7.65
2022-11-16T01:30:17.800Z,7.25
2022-11-16T01:32:44.657Z,7.55
2022-11-16T01:35:16.066Z,7.47
2022-11-16T01:37:42.861Z,7.80
2022-11-16T01:40:11.060Z,7.07
2022-11-16T01:42:38.206Z,7.63
2022-11-16T01:45:23.125Z,6.70
2022-11-16T01:47:52.040Z,8.40
2022-11-16T01:50:19.654Z,8.70
2022-11-16T01:52:53.325Z,7.20
2022-11-16T01:55:22.123Z,7.88
2022-11-16T01:57:49.526Z,8.05
2022-11-16T02:00:17.411Z,7.88
2022-11-16T02:02:44.701Z,8.23
2022-11-16T02:05:15.740Z,7.90
2022-11-16T02:08:07.180Z,7.57
2022-11-16T02:11:00.334Z,7.28
2022-11-16T02:13:27.055Z,7.70
2022-11-16T02:16:25.118Z,7.60
2022-11-16T02:19:10.710Z,7.10
2022-11-16T02:22:02.036Z,7.13
2022-11-16T02:24:43.648Z,7.40
2022-11-16T02:27:45.173Z,6.53
2022-11-16T02:30:12.591Z,7.20
2022-11-16T02:32:45.418Z,7.28
2022-11-16T02:35:35.489Z,6.95
2022-11-16T02:38:09.142Z,7.47
2022-11-16T02:40:38.418Z,7.03
2022-11-16T02:43:12.104Z,7.82
2022-11-16T02:45:44.008Z,7.28
2022-11-16T02:48:21.079Z,7.25
2022-11-16T02:50:52.885Z,7.25
2022-11-16T02:53:24.486Z,7.38
2022-11-16T02:55:51.922Z,7.90
2022-11-16T02:58:22.578Z,7.20
2022-11-16T03:01:00.381Z,7.25
2022-11-16T03:03:40.598Z,7.95
2022-11-16T03:06:16.413Z,8.18
2022-11-16T03:08:48.004Z,7.10
2022-11-16T03:11:33.984Z,7.10
2022-11-16T03:14:05.676Z,7.88
2022-11-16T03:16:45.294Z,7.93
2022-11-16T03:19:17.059Z,8.30
2022-11-16T03:22:26.720Z,8.30
2022-11-16T03:24:53.939Z,8.48
2022-11-16T03:27:40.541Z,8.25
2022-11-16T03:30:23.346Z,8.65
2022-11-16T03:35:37.921Z,8.15
2022-11-16T03:38:06.646Z,9.52
2022-11-16T03:40:35.079Z,9.55
2022-11-16T03:43:04.068Z,8.77
2022-11-16T03:45:32.541Z,9.35
2022-11-16T03:48:00.506Z,9.25
2022-11-16T03:50:27.389Z,9.57
2022-11-16T03:52:54.232Z,10.52
2022-11-16T03:55:21.091Z,10.57
2022-11-16T03:57:47.855Z,10.38
2022-11-16T04:00:14.865Z,10.57
2022-11-16T04:02:42.071Z,11.02
2022-11-16T04:05:28.435Z,10.30
2022-11-16T04:08:13.771Z,10.32
2022-11-16T04:10:59.003Z,11.15
2022-11-16T04:13:48.626Z,11.25
2022-11-16T04:16:34.435Z,11.00
2022-11-16T04:19:19.699Z,11.43
2022-11-16T04:22:15.755Z,12.75
2022-11-16T04:24:45.852Z,12.23
2022-11-16T04:27:34.236Z,11.63
2022-11-16T04:30:02.871Z,13.80
2022-11-16T04:32:48.587Z,12.75
2022-11-16T04:35:34.084Z,12.20
2022-11-16T04:38:01.061Z,12.07
2022-11-16T04:40:29.530Z,12.68
2022-11-16T04:43:01.678Z,12.20
2022-11-16T04:45:47.995Z,12.85
2022-11-16T04:48:16.858Z,12.65
2022-11-16T04:50:44.032Z,12.15
2022-11-16T04:53:11.665Z,13.32
2022-11-16T04:55:38.460Z,12.55
2022-11-16T04:58:05.559Z,13.32
2022-11-16T05:00:32.698Z,13.02
2022-11-16T05:03:01.527Z,14.20
2022-11-16T05:05:28.987Z,12.90
2022-11-16T05:07:55.993Z,13.70
2022-11-16T05:10:23.145Z,15.07
2022-11-16T05:12:50.064Z,14.32
2022-11-16T05:15:19.649Z,13.98
2022-11-16T05:17:46.976Z,16.83
2022-11-16T05:20:32.959Z,13.55
2022-11-16T05:22:59.816Z,14.52
2022-11-16T05:25:30.223Z,15.25
2022-11-16T05:27:59.501Z,14.98
2022-11-16T05:30:26.343Z,15.55
2022-11-16T05:32:53.137Z,14.65
2022-11-16T05:35:19.904Z,14.88
2022-11-16T05:37:46.672Z,13.60
2022-11-16T05:40:13.529Z,14.45
2022-11-16T05:42:40.280Z,14.52
2022-11-16T05:45:07.473Z,14.73
2022-11-16T05:47:34.277Z,14.70
2022-11-16T05:50:01.194Z,15.27
2022-11-16T05:52:27.942Z,13.90
2022-11-16T05:54:54.691Z,15.57
2022-11-16T05:57:21.496Z,15.32
2022-11-16T05:59:48.311Z,16.35
2022-11-16T06:02:15.088Z,15.90
2022-11-16T06:04:41.894Z,16.00
2022-11-16T06:07:08.726Z,15.38
2022-11-16T06:09:35.518Z,17.10
2022-11-16T06:12:02.536Z,15.45
2022-11-16T06:14:29.338Z,18.02
2022-11-16T06:16:56.093Z,17.02
2022-11-16T06:19:24.377Z,17.85
2022-11-16T06:21:52.843Z,17.98
2022-11-16T06:24:19.610Z,18.50
2022-11-16T06:26:47.147Z,17.83
2022-11-16T06:29:14.274Z,19.13
2022-11-16T06:31:41.027Z,18.08
2022-11-16T06:34:07.891Z,18.05
2022-11-16T06:36:34.815Z,17.85
2022-11-16T06:39:01.646Z,18.92
2022-11-16T06:41:28.457Z,19.90
2022-11-16T06:43:55.310Z,19.58
2022-11-16T06:46:22.123Z,19.45
2022-11-16T06:48:48.890Z,19.52
2022-11-16T06:51:15.886Z,19.98
2022-11-16T06:53:43.238Z,19.95
2022-11-16T06:56:13.506Z,23.42
2022-11-16T06:58:42.740Z,21.98
2022-11-16T07:01:11.394Z,22.38
2022-11-16T07:03:38.709Z,20.40
2022-11-16T07:06:14.966Z,19.80
2022-11-16T07:08:41.798Z,17.75
2022-11-16T07:11:09.770Z,21.65
2022-11-16T07:13:37.976Z,21.55
2022-11-16T07:16:09.675Z,21.13
2022-11-16T07:18:38.896Z,20.05
2022-11-16T07:21:10.644Z,21.17
2022-11-16T07:23:38.286Z,22.75
2022-11-16T07:26:06.825Z,21.15
2022-11-16T07:28:34.243Z,23.20
2022-11-16T07:31:05.902Z,20.55
2022-11-16T07:33:33.077Z,20.38
2022-11-16T07:36:13.496Z,20.70
2022-11-16T07:38:40.587Z,23.58
2022-11-16T07:41:10.784Z,22.80
2022-11-16T07:43:37.884Z,22.42
2022-11-16T07:49:00.085Z,21.42
2022-11-16T07:51:26.945Z,20.83
2022-11-16T07:53:58.092Z,20.92
2022-11-16T07:56:25.512Z,22.67
2022-11-16T07:58:52.528Z,21.13
2022-11-16T08:01:19.771Z,22.23
2022-11-16T08:03:46.997Z,25.90
2022-11-16T08:06:17.609Z,21.00
2022-11-16T08:08:44.513Z,24.08
2022-11-16T08:11:12.473Z,24.50
2022-11-16T08:13:40.925Z,25.90
2022-11-16T08:16:11.629Z,25.25
2022-11-16T08:18:39.329Z,24.38
2022-11-16T08:21:07.908Z,24.85
2022-11-16T08:23:35.081Z,21.30
2022-11-16T08:26:09.348Z,22.10
2022-11-16T08:28:37.631Z,22.80
2022-11-16T08:31:09.869Z,22.48
2022-11-16T08:33:36.879Z,22.13
2022-11-16T08:36:10.866Z,27.67
2022-11-16T08:38:40.767Z,21.48
2022-11-16T08:41:08.391Z,22.80
2022-11-16T08:43:35.956Z,23.20
2022-11-16T08:46:03.407Z,22.00
2022-11-16T08:48:30.666Z,22.38
2022-11-16T08:51:21.580Z,22.65
2022-11-16T08:53:49.528Z,30.30
2022-11-16T08:56:18.136Z,22.98
2022-11-16T08:58:47.427Z,23.67
2022-11-16T09:01:20.047Z,24.02
2022-11-16T09:03:47.040Z,25.00
2022-11-16T09:06:14.911Z,22.55
2022-11-16T09:08:44.123Z,22.60
2022-11-16T09:11:16.326Z,23.40
2022-11-16T09:13:44.756Z,23.35
2022-11-16T09:16:11.639Z,22.45
2022-11-16T09:18:38.542Z,24.85
2022-11-16T09:21:05.626Z,23.40
2022-11-16T09:23:32.507Z,23.10
2022-11-16T09:26:06.282Z,24.73
2022-11-16T09:28:34.014Z,23.70
2022-11-16T09:31:04.439Z,25.88
2022-11-16T09:33:33.297Z,21.77
2022-11-16T09:36:08.966Z,22.48
2022-11-16T09:39:13.896Z,22.63
2022-11-16T09:41:52.363Z,22.00
2022-11-16T09:44:39.909Z,21.27
2022-11-16T09:47:23.932Z,20.17
2022-11-16T09:50:00.019Z,20.73
2022-11-16T09:52:43.614Z,18.48
2022-11-16T09:55:38.571Z,18.85
2022-11-16T09:58:17.787Z,17.80
2022-11-16T10:00:50.130Z,16.27
2022-11-16T10:03:17.063Z,16.48
2022-11-16T10:05:46.594Z,15.88
2022-11-16T10:08:33.497Z,16.05
2022-11-16T10:11:24.093Z,14.35
2022-11-16T10:14:10.506Z,14.38
2022-11-16T10:16:54.470Z,14.27
2022-11-16T10:20:02.567Z,14.25
2022-11-16T10:22:43.734Z,13.52
2022-11-16T10:25:21.288Z,12.25
2022-11-16T10:28:06.047Z,11.00
2022-11-16T10:30:44.974Z,10.32
2022-11-16T10:33:18.579Z,10.88
2022-11-16T10:35:53.673Z,10.02
2022-11-16T10:38:33.258Z,10.15
2022-11-16T10:41:14.425Z,9.85
2022-11-16T10:43:43.197Z,9.55
2022-11-16T10:46:55.814Z,8.65
2022-11-16T10:49:50.695Z,9.35
2022-11-16T10:52:17.480Z,7.88
2022-11-16T10:54:44.721Z,7.63
2022-11-16T10:57:14.227Z,6.57
2022-11-16T10:59:50.328Z,7.30
2022-11-16T11:02:23.246Z,6.28
2022-11-16T11:05:20.118Z,6.63
2022-11-16T11:07:59.771Z,6.72
2022-11-16T11:10:32.896Z,6.78
2022-11-16T11:13:08.081Z,6.75
2022-11-16T11:15:34.932Z,5.55
2022-11-16T11:18:19.040Z,3.75
2022-11-16T11:20:50.302Z,4.75
2022-11-16T11:23:26.236Z,4.60
2022-11-16T11:26:00.563Z,5.38
2022-11-16T11:28:32.626Z,4.40
2022-11-16T11:31:07.218Z,4.40
2022-11-16T11:33:41.458Z,4.53
2022-11-16T11:36:18.806Z,4.40
2022-11-16T11:39:02.118Z,3.13
2022-11-16T11:44:04.574Z,3.03
2022-11-16T11:47:11.059Z,3.20
2022-11-16T11:49:33.841Z,3.22
2022-11-16T11:52:31.145Z,2.72
2022-11-16T11:54:58.001Z,3.78
2022-11-16T11:57:25.743Z,3.22
2022-11-16T11:59:54.836Z,3.40
2022-11-16T12:02:40.821Z,3.70
2022-11-16T12:05:41.431Z,2.60
2022-11-16T12:08:26.309Z,3.65
2022-11-16T12:11:01.519Z,2.42
2022-11-16T12:13:37.995Z,2.97
2022-11-16T12:16:36.862Z,2.90
2022-11-16T12:19:22.439Z,3.28
2022-11-16T12:22:08.836Z,3.00
2022-11-16T12:25:06.541Z,2.47
2022-11-16T12:27:39.555Z,2.85
2022-11-16T12:30:18.202Z,2.67
2022-11-16T12:33:10.543Z,2.58
2022-11-16T12:36:19.606Z,2.58
2022-11-16T12:39:15.503Z,2.92
2022-11-16T12:42:07.898Z,2.47
2022-11-16T12:44:47.135Z,2.55
2022-11-16T12:47:39.068Z,2.67
2022-11-16T12:50:18.408Z,2.03
2022-11-16T12:52:53.951Z,2.83
2022-11-16T12:55:46.065Z,3.70
2022-11-16T12:58:20.813Z,2.17
2022-11-16T13:00:57.340Z,2.53
2022-11-16T13:03:35.948Z,1.75
2022-11-16T13:06:08.527Z,1.70
2022-11-16T13:08:50.704Z,2.05
2022-11-16T13:11:25.560Z,2.80
2022-11-16T13:13:58.096Z,3.17
2022-11-16T13:16:26.047Z,1.77
2022-11-16T13:18:55.089Z,2.25
2022-11-16T13:21:26.023Z,2.17
2022-11-16T13:24:14.835Z,2.28
2022-11-16T13:26:53.624Z,2.47
2022-11-16T13:29:34.189Z,2.92
2022-11-16T13:32:14.391Z,2.50
2022-11-16T13:34:42.119Z,2.60
2022-11-16T13:37:34.028Z,2.03
2022-11-16T13:40:00.938Z,2.08
2022-11-16T13:42:30.150Z,2.60
2022-11-16T13:45:18.890Z,2.92
2022-11-16T13:47:52.014Z,2.50
2022-11-16T13:54:37.747Z,2.38
2022-11-16T13:56:13.572Z,2.25
2022-11-16T13:58:47.050Z,3.13
2022-11-16T14:01:14.607Z,2.63
2022-11-16T14:03:47.407Z,2.60
2022-11-16T14:06:19.886Z,2.53
2022-11-16T14:08:49.440Z,2.35
2022-11-16T14:11:39.423Z,2.15
2022-11-16T14:14:11.096Z,1.77
2022-11-16T14:16:46.481Z,2.42
2022-11-16T14:19:44.811Z,1.95
2022-11-16T14:22:39.634Z,2.25
2022-11-16T14:25:29.927Z,2.83
2022-11-16T14:28:27.953Z,2.35
2022-11-16T14:31:28.380Z,2.65
2022-11-16T14:33:58.512Z,2.45
2022-11-16T14:36:38.542Z,3.92
2022-11-16T14:39:42.958Z,2.55
2022-11-16T14:42:38.073Z,2.90
2022-11-16T14:45:45.778Z,2.97
2022-11-16T14:48:22.257Z,2.72
2022-11-16T14:51:09.713Z,3.03
2022-11-16T14:53:41.878Z,2.47
2022-11-16T14:56:17.188Z,3.47
2022-11-16T14:59:02.960Z,2.40
2022-11-16T15:01:33.789Z,2.28
2022-11-16T15:04:09.389Z,2.78
2022-11-16T15:07:02.252Z,3.60
2022-11-16T15:09:41.280Z,2.58
2022-11-16T15:12:35.520Z,4.00
2022-11-16T15:15:10.513Z,3.25
2022-11-16T15:17:43.301Z,2.92
2022-11-16T15:20:23.697Z,2.97
2022-11-16T15:22:56.862Z,3.53
2022-11-16T15:27:57.039Z,5.10
2022-11-16T15:30:34.112Z,3.72
2022-11-16T15:33:10.318Z,3.05
2022-11-16T15:35:38.142Z,3.10
2022-11-16T15:38:21.880Z,3.08
2022-11-16T15:40:53.438Z,3.10
2022-11-16T15:43:33.395Z,3.15
2022-11-16T15:46:01.828Z,3.03
2022-11-16T15:48:29.560Z,3.10
2022-11-16T15:51:16.748Z,3.22
2022-11-16T15:53:46.075Z,2.92
2022-11-16T15:56:27.708Z,2.42
2022-11-16T15:58:57.346Z,2.30
2022-11-16T16:01:25.720Z,3.80
2022-11-16T16:04:06.653Z,3.42
2022-11-16T16:06:45.539Z,3.00
2022-11-16T16:09:29.110Z,3.20
2022-11-16T16:12:15.318Z,3.88
2022-11-16T16:14:42.581Z,3.22
2022-11-16T16:17:11.394Z,4.28
2022-11-16T16:19:44.285Z,3.35
2022-11-16T16:22:26.711Z,3.55
2022-11-16T16:24:54.542Z,4.10
2022-11-16T16:27:24.217Z,5.22
2022-11-16T16:29:53.547Z,5.28
2022-11-16T16:32:29.162Z,4.70
2022-11-16T16:34:58.195Z,4.25
2022-11-16T16:37:30.936Z,5.10
2022-11-16T16:39:58.745Z,4.18
2022-11-16T16:42:25.904Z,5.63
2022-11-16T16:44:53.042Z,4.75
2022-11-16T16:47:20.793Z,5.50
2022-11-16T16:49:50.725Z,5.47
2022-11-16T16:52:17.865Z,6.05
2022-11-16T16:54:44.699Z,4.85
2022-11-16T16:57:18.511Z,4.53
2022-11-16T16:59:45.944Z,4.97
2022-11-16T17:02:13.329Z,4.22
2022-11-16T17:04:40.763Z,4.88
2022-11-16T17:07:07.694Z,5.85
2022-11-16T17:09:34.545Z,5.20
2022-11-16T17:12:01.680Z,6.72
2022-11-16T17:14:28.594Z,6.95
2022-11-16T17:16:55.971Z,6.10
2022-11-16T17:19:22.825Z,6.40
2022-11-16T17:21:51.668Z,6.38
2022-11-16T17:24:18.670Z,5.70
2022-11-16T17:26:48.289Z,6.03
2022-11-16T17:29:15.568Z,5.72
2022-11-16T17:31:44.142Z,5.97
2022-11-16T17:34:13.726Z,5.88
2022-11-16T17:36:41.744Z,5.82
2022-11-16T17:39:08.701Z,5.88
2022-11-16T17:41:35.582Z,5.38
2022-11-16T17:44:02.403Z,5.88
2022-11-16T17:46:29.213Z,6.72
2022-11-16T17:48:56.610Z,6.65
2022-11-16T17:51:25.257Z,6.85
2022-11-16T17:53:52.529Z,6.57
2022-11-16T17:56:21.289Z,7.93
2022-11-16T17:58:50.202Z,9.30
2022-11-16T18:01:17.242Z,8.20
2022-11-16T18:03:44.241Z,12.70
2022-11-16T18:06:13.738Z,12.35
2022-11-16T18:08:41.858Z,17.95
2022-11-16T18:11:20.793Z,14.98
2022-11-16T18:13:48.472Z,18.73
2022-11-16T18:16:18.506Z,26.50
2022-11-16T18:18:46.646Z,22.92
2022-11-16T18:21:20.360Z,23.52
2022-11-16T18:23:47.985Z,23.98
2022-11-16T18:26:17.551Z,26.05
2022-11-16T18:28:45.606Z,24.38
2022-11-16T18:31:15.500Z,28.83
2022-11-16T18:33:43.034Z,32.13
2022-11-16T18:36:10.533Z,29.30
2022-11-16T18:38:39.495Z,32.60
2022-11-16T18:41:12.477Z,31.08
2022-11-16T18:43:50.410Z,29.60
2022-11-16T18:46:18.932Z,32.63
2022-11-16T18:48:46.816Z,31.95
2022-11-16T18:51:15.850Z,30.90
2022-11-16T18:53:42.711Z,31.27
2022-11-16T18:56:09.799Z,31.65
2022-11-16T18:58:50.229Z,38.50
2022-11-16T19:01:22.421Z,31.55
2022-11-16T19:03:49.627Z,30.38
2022-11-16T19:06:17.908Z,32.53
2022-11-16T19:08:53.709Z,33.05
2022-11-16T19:11:23.364Z,34.80
2022-11-16T19:13:54.127Z,34.08
2022-11-16T19:16:21.515Z,32.95
2022-11-16T19:18:48.486Z,34.25
2022-11-16T19:21:18.587Z,38.78
2022-11-16T19:23:47.781Z,52.72
2022-11-16T19:26:16.261Z,39.15
2022-11-16T19:28:45.097Z,64.53
2022-11-16T19:31:14.268Z,52.92
2022-11-16T19:33:44.816Z,31.63
2022-11-16T19:36:13.920Z,32.03
2022-11-16T19:38:41.283Z,32.72
2022-11-16T19:41:10.856Z,31.67
2022-11-16T19:43:38.064Z,29.42
2022-11-16T19:46:10.544Z,29.38
2022-11-16T19:48:38.370Z,26.73
2022-11-16T19:51:10.343Z,30.08
2022-11-16T19:53:38.522Z,28.45
2022-11-16T19:56:06.618Z,29.23
2022-11-16T19:58:39.564Z,27.63
2022-11-16T20:01:09.867Z,27.80
2022-11-16T20:03:43.134Z,27.73
2022-11-16T20:08:49.864Z,26.13
2022-11-16T20:11:22.169Z,26.85
2022-11-16T20:13:50.772Z,25.27
2022-11-16T20:16:19.590Z,26.27
2022-11-16T20:18:47.735Z,29.10
2022-11-16T20:21:35.848Z,24.92
2022-11-16T20:24:06.867Z,24.52
2022-11-16T20:26:35.608Z,23.63
2022-11-16T20:29:03.508Z,24.33
2022-11-16T20:31:33.780Z,24.73
2022-11-16T20:34:03.448Z,23.63
2022-11-16T20:36:32.221Z,24.10
2022-11-16T20:39:00.471Z,20.83
2022-11-16T20:41:29.333Z,23.23
2022-11-16T20:43:58.664Z,23.80
2022-11-16T20:46:30.171Z,24.02
2022-11-16T20:48:59.306Z,24.08
2022-11-16T20:51:26.765Z,24.15
2022-11-16T20:53:53.876Z,24.13
2022-11-16T20:56:21.151Z,23.90
2022-11-16T20:58:49.092Z,24.17
2022-11-16T21:01:32.875Z,24.15
2022-11-16T21:04:02.286Z,25.13
2022-11-16T21:06:29.710Z,21.98
2022-11-16T21:08:56.820Z,24.63
2022-11-16T21:11:29.840Z,23.85
2022-11-16T21:14:15.365Z,23.17
2022-11-16T21:16:42.376Z,22.38
2022-11-16T21:19:09.958Z,21.38
2022-11-16T21:21:38.083Z,23.77
2022-11-16T21:24:05.354Z,24.98
2022-11-16T21:26:33.094Z,24.10
2022-11-16T21:29:01.233Z,20.85
2022-11-16T21:31:30.127Z,20.98
2022-11-16T21:33:57.923Z,22.40
2022-11-16T21:36:26.851Z,23.95
2022-11-16T21:38:54.269Z,23.42
2022-11-16T21:41:22.921Z,23.70
2022-11-16T21:43:49.855Z,23.17
2022-11-16T21:46:25.205Z,23.13
2022-11-16T21:48:53.802Z,24.00
2022-11-16T21:51:22.502Z,24.23
2022-11-16T21:53:49.437Z,23.77
2022-11-16T21:56:18.340Z,23.10
2022-11-16T21:58:45.754Z,23.13
2022-11-16T22:01:13.767Z,22.23
2022-11-16T22:03:40.665Z,22.35
2022-11-16T22:06:30.190Z,20.75
2022-11-16T22:08:57.028Z,22.67
2022-11-16T22:11:23.903Z,22.17
2022-11-16T22:13:51.002Z,20.98
2022-11-16T22:16:19.309Z,22.02
2022-11-16T22:18:46.466Z,23.05
2022-11-16T22:21:13.634Z,20.00
2022-11-16T22:23:41.014Z,22.42
2022-11-16T22:26:10.323Z,21.70
2022-11-16T22:28:37.539Z,21.65
2022-11-16T22:31:06.582Z,20.90
2022-11-16T22:33:34.293Z,21.70
2022-11-16T22:36:01.603Z,20.88
2022-11-16T22:38:28.492Z,20.20
2022-11-16T22:40:56.745Z,20.30
2022-11-16T22:43:26.329Z,21.00
2022-11-16T22:46:01.042Z,20.15
2022-11-16T22:48:36.311Z,21.77
2022-11-16T22:51:23.238Z,20.02
2022-11-16T22:53:54.144Z,19.25
2022-11-16T22:56:21.145Z,21.05
2022-11-16T22:58:47.981Z,21.45
2022-11-16T23:01:14.736Z,21.05
2022-11-16T23:03:41.696Z,20.73
2022-11-16T23:06:08.802Z,20.38
2022-11-16T23:08:36.502Z,19.85
2022-11-16T23:11:24.978Z,20.33
2022-11-16T23:14:19.735Z,20.83
2022-11-16T23:16:46.853Z,20.38
2022-11-16T23:19:35.232Z,19.83
2022-11-16T23:22:21.529Z,19.85
2022-11-16T23:25:06.745Z,20.10
2022-11-16T23:27:52.192Z,20.02
2022-11-16T23:30:19.335Z,20.63
2022-11-16T23:32:46.196Z,20.38
2022-11-16T23:35:13.550Z,18.60
2022-11-16T23:37:56.928Z,20.10
2022-11-16T23:40:27.262Z,19.65
2022-11-16T23:43:13.644Z,21.15
2022-11-16T23:45:41.708Z,19.23
2022-11-16T23:48:10.028Z,18.67
2022-11-16T23:50:36.898Z,20.55
2022-11-16T23:53:05.242Z,18.98
2022-11-16T23:55:33.302Z,18.85
2022-11-16T23:58:00.282Z,19.38
